LFSN/ENC METAR and TAF weather

Enter ICAO airport designator
Station Type Date Time Source
LFSN METAR 2020/12/05 06:00 UTC NOAA

LFSN 050600Z AUTO 16006KT 9999 FEW025 SCT031 BKN037 03/01 Q0996


Station Type Date Time Source
LFSN Decoded METAR 2020/12/05 06:00 UTC NOAA

Nancy / Essey, France (LFSN) 48-41N 006-13E 217M
Dec 05, 2020 - 01:00 AM EST / 2020.12.05 0600 UTC
Wind: from the SSE (160 degrees) at 7 MPH (6 KT):0
Visibility: greater than 7 mile(s):0
Sky conditions: mostly cloudy
Temperature: 37 F (3 C)
Dew Point: 33 F (1 C)
Relative Humidity: 86%
Pressure (altimeter): 29.41 in. Hg (0996 hPa)
ob: LFSN 050600Z AUTO 16006KT 9999 FEW025 SCT031 BKN037 03/01 Q0996
cycle: 6

Station Type Date Time Source
LFSN TAF 2012/03/14 16:58 UTC NOAA

TAF LFSN 141600Z 1416/1512 CNL

Example: see airport list